Time;durP1;ratioP1;P1;durP2;ratioP2;P2;SDS_P1;SDS_P2;PMS_P1;PMS_P2;Temp;Humidity;BMP_temperature;BMP_pressure;BME280_temperature;BME280_humidity;BME280_pressure;Samples;Min_cycle;Max_cycle;Signal;HPM_P1;HPM_P2
2019/04/03 00:01:21;;;;;;;17.5;12.4;;;;;;;10.86;59.17578;948.3196;;;;
2019/04/03 00:03:47;;;;;;;15;10.9;;;;;;;10.84;59.24219;948.2877;;;;
2019/04/03 00:06:11;;;;;;;12.6;10.2;;;;;;;10.92;58.83398;948.1722;;;;
2019/04/03 00:08:36;;;;;;;12.9;10.4;;;;;;;10.82;58.99609;948.2011;;;;
2019/04/03 00:11:02;;;;;;;14.7;11.2;;;;;;;10.81;59.60938;948.2031;;;;
2019/04/03 00:13:27;;;;;;;12.7;10.1;;;;;;;10.8;59.81836;948.1951;;;;
2019/04/03 00:15:52;;;;;;;11.3;9.6;;;;;;;10.56;60.71289;948.2715;;;;
2019/04/03 00:18:17;;;;;;;14.7;10.7;;;;;;;10.33;61.6875;948.2235;;;;
2019/04/03 00:20:42;;;;;;;12;9.6;;;;;;;10.2;62.57422;948.3028;;;;
2019/04/03 00:23:07;;;;;;;11.5;8.7;;;;;;;10.14;63.13281;948.2681;;;;
2019/04/03 00:25:34;;;;;;;12.9;9.6;;;;;;;10.01;63.37988;948.2285;;;;
2019/04/03 00:27:58;;;;;;;13.1;9.7;;;;;;;9.86;63.74121;948.2584;;;;
2019/04/03 00:30:23;;;;;;;12.4;9.6;;;;;;;9.67;64.10547;948.1877;;;;
2019/04/03 00:32:48;;;;;;;13.1;10.1;;;;;;;9.62;65.50977;948.1225;;;;
2019/04/03 00:35:14;;;;;;;12;9.5;;;;;;;9.6;65.42578;948.197;;;;
2019/04/03 00:37:39;;;;;;;12.4;9.6;;;;;;;9.6;65.99512;948.1664;;;;
2019/04/03 00:40:04;;;;;;;14.1;10;;;;;;;9.52;66.1543;948.0744;;;;
2019/04/03 00:42:29;;;;;;;12.9;9.8;;;;;;;9.45;66.39844;948.0912;;;;
2019/04/03 00:44:54;;;;;;;11.2;9.2;;;;;;;9.35;65.92188;948.1451;;;;
2019/04/03 00:47:19;;;;;;;12.1;9.1;;;;;;;9.34;66.79785;948.198;;;;
2019/04/03 00:49:45;;;;;;;11.7;9.9;;;;;;;9.28;67.66895;948.2639;;;;
2019/04/03 00:52:10;;;;;;;14.1;10.2;;;;;;;9.24;67.11719;948.2907;;;;
2019/04/03 00:54:36;;;;;;;11.2;8.7;;;;;;;9.24;67.53516;948.2732;;;;
2019/04/03 00:57:00;;;;;;;11.8;9.3;;;;;;;9.27;67.81543;948.2872;;;;
2019/04/03 00:59:25;;;;;;;13.1;10.6;;;;;;;9.26;68.05762;948.2792;;;;
2019/04/03 01:01:50;;;;;;;12.4;9.4;;;;;;;9.28;67.50684;948.2256;;;;
2019/04/03 01:04:16;;;;;;;15.8;10.7;;;;;;;9.32;66.87598;948.2213;;;;
2019/04/03 01:06:41;;;;;;;14.4;10.4;;;;;;;9.36;66.8584;948.204;;;;
2019/04/03 01:09:06;;;;;;;13.9;9.7;;;;;;;9.38;66.86328;948.2053;;;;
2019/04/03 01:11:31;;;;;;;12.5;10.4;;;;;;;9.3;66.58496;948.2659;;;;
2019/04/03 01:13:56;;;;;;;13.6;10.2;;;;;;;9.24;67.19922;948.3114;;;;
2019/04/03 01:16:21;;;;;;;11.9;9.1;;;;;;;9.29;67.86523;948.3523;;;;
2019/04/03 01:18:46;;;;;;;13.2;10.3;;;;;;;9.62;67.57129;948.3381;;;;
2019/04/03 01:21:12;;;;;;;11.8;10.1;;;;;;;9.83;66.49219;948.3089;;;;
2019/04/03 01:23:37;;;;;;;12.2;10.1;;;;;;;9.74;66.07324;948.2346;;;;
2019/04/03 01:26:02;;;;;;;13;9.7;;;;;;;9.62;66.78418;948.258;;;;
2019/04/03 01:28:27;;;;;;;12.3;9.6;;;;;;;9.65;66.96094;948.2079;;;;
2019/04/03 01:30:52;;;;;;;12.2;9.4;;;;;;;9.53;66.57422;948.2;;;;
2019/04/03 01:33:18;;;;;;;11.4;10;;;;;;;9.52;66.7002;948.2059;;;;
2019/04/03 01:35:43;;;;;;;14.8;9.2;;;;;;;9.41;68.49805;948.2194;;;;
2019/04/03 01:38:08;;;;;;;13.4;10.3;;;;;;;9.33;68.57813;948.2497;;;;
2019/04/03 01:40:33;;;;;;;11.7;9.9;;;;;;;9.2;68.57031;948.1973;;;;
2019/04/03 01:42:58;;;;;;;14.2;10.6;;;;;;;8.96;68.88965;948.2335;;;;
2019/04/03 01:45:24;;;;;;;14.1;10.5;;;;;;;8.8;70.73438;948.2145;;;;
2019/04/03 01:47:48;;;;;;;12.5;10.3;;;;;;;8.73;70.93066;948.1882;;;;
2019/04/03 01:50:14;;;;;;;14.4;11.1;;;;;;;8.65;72.0625;948.1422;;;;
2019/04/03 01:52:39;;;;;;;15.7;11.4;;;;;;;8.59;73.3916;948.0814;;;;
2019/04/03 01:55:04;;;;;;;14.5;11.2;;;;;;;8.47;73.10645;948.014;;;;
2019/04/03 01:57:29;;;;;;;18.6;14.4;;;;;;;8.48;73.58105;947.9792;;;;
2019/04/03 01:59:54;;;;;;;14.5;12;;;;;;;8.6;73.6123;947.9319;;;;
2019/04/03 02:02:19;;;;;;;18.2;13.4;;;;;;;8.47;75.11426;947.9378;;;;
2019/04/03 02:04:45;;;;;;;14.5;12.4;;;;;;;8.38;75.33984;947.8933;;;;
2019/04/03 02:07:10;;;;;;;15;12.8;;;;;;;8.31;73.61816;947.8259;;;;
2019/04/03 02:09:35;;;;;;;16.2;12.9;;;;;;;8.29;76.30566;947.9419;;;;
2019/04/03 02:12:00;;;;;;;13.8;12.4;;;;;;;8.25;76.25098;947.8697;;;;
2019/04/03 02:14:25;;;;;;;15.1;12.9;;;;;;;8.17;77.63281;947.9339;;;;
2019/04/03 02:16:51;;;;;;;15.7;12.2;;;;;;;8.12;77.50977;947.9314;;;;
2019/04/03 02:19:19;;;;;;;14.6;11.9;;;;;;;8.09;77.98926;947.8752;;;;
2019/04/03 02:21:45;;;;;;;15.6;12.4;;;;;;;8.04;78.42871;947.8723;;;;
2019/04/03 02:24:10;;;;;;;13.8;11.4;;;;;;;7.95;78.43555;947.8747;;;;
2019/04/03 02:26:38;;;;;;;16.1;12.7;;;;;;;7.92;78.56934;947.9202;;;;
2019/04/03 02:29:03;;;;;;;14;11.8;;;;;;;7.9;79.54492;947.8718;;;;
2019/04/03 02:31:29;;;;;;;15.7;12.4;;;;;;;7.89;77.99805;947.8943;;;;
2019/04/03 02:33:57;;;;;;;15.9;12.6;;;;;;;7.87;80.08105;947.8704;;;;
2019/04/03 02:36:23;;;;;;;14.8;12.5;;;;;;;7.88;78.68652;947.8236;;;;
2019/04/03 02:38:48;;;;;;;14.1;12.3;;;;;;;7.83;78.25195;947.8502;;;;
2019/04/03 02:41:13;;;;;;;15;12.8;;;;;;;7.87;78.92871;947.8577;;;;
2019/04/03 02:43:38;;;;;;;15.8;13.9;;;;;;;7.93;81.31348;947.8303;;;;
2019/04/03 02:46:03;;;;;;;16.2;12.1;;;;;;;7.81;79.28613;947.7629;;;;
2019/04/03 02:48:28;;;;;;;14.1;12.2;;;;;;;7.66;79.09668;947.7713;;;;
2019/04/03 02:50:55;;;;;;;17.6;12.2;;;;;;;7.53;79.29102;947.7698;;;;
2019/04/03 02:53:21;;;;;;;15.4;13.1;;;;;;;7.45;83.43359;947.6806;;;;
2019/04/03 02:55:46;;;;;;;16;13.5;;;;;;;7.43;85.09961;947.6156;;;;
2019/04/03 02:58:11;;;;;;;17.5;14;;;;;;;7.44;85.42383;947.6099;;;;
2019/04/03 03:00:36;;;;;;;17.5;14;;;;;;;7.44;85.79297;947.555;;;;
2019/04/03 03:03:01;;;;;;;16.1;13.8;;;;;;;7.41;86.27051;947.592;;;;
2019/04/03 03:05:26;;;;;;;22.1;15.9;;;;;;;7.46;86.52148;947.5144;;;;
2019/04/03 03:07:51;;;;;;;17.7;14.9;;;;;;;7.51;86.27734;947.3948;;;;
2019/04/03 03:10:17;;;;;;;17.1;14;;;;;;;7.55;86.06934;947.4497;;;;
2019/04/03 03:12:42;;;;;;;18.5;14.6;;;;;;;7.57;85.87891;947.4765;;;;
2019/04/03 03:15:10;;;;;;;19.5;14.9;;;;;;;7.6;85.98633;947.3977;;;;
2019/04/03 03:17:35;;;;;;;16.7;14;;;;;;;7.65;85.38574;947.459;;;;
2019/04/03 03:20:00;;;;;;;14.8;13.2;;;;;;;7.69;84.87598;947.4119;;;;
2019/04/03 03:22:25;;;;;;;18.2;13.8;;;;;;;7.72;84.53418;947.4092;;;;
2019/04/03 03:24:51;;;;;;;15.5;12.7;;;;;;;7.76;84.25684;947.3914;;;;
2019/04/03 03:27:16;;;;;;;16.7;13.4;;;;;;;7.76;84.42969;947.3954;;;;
2019/04/03 03:29:44;;;;;;;17.9;13.1;;;;;;;7.78;84.14453;947.423;;;;
2019/04/03 03:32:09;;;;;;;16.3;12.6;;;;;;;7.8;83.98633;947.4077;;;;
2019/04/03 03:34:34;;;;;;;15.8;12.1;;;;;;;7.76;84.11621;947.3112;;;;
2019/04/03 03:36:59;;;;;;;16.2;12.3;;;;;;;7.7;84.70508;947.2967;;;;
2019/04/03 03:39:25;;;;;;;14.9;12.3;;;;;;;7.66;84.50098;947.3312;;;;
2019/04/03 03:41:49;;;;;;;13.6;12.1;;;;;;;7.62;84.5957;947.2894;;;;
2019/04/03 03:44:15;;;;;;;14.1;12.3;;;;;;;7.62;85.32129;947.2808;;;;
2019/04/03 03:46:40;;;;;;;13.7;12.1;;;;;;;7.68;86.03613;947.2102;;;;
2019/04/03 03:49:05;;;;;;;14.3;11.7;;;;;;;7.64;86.73242;947.2654;;;;
2019/04/03 03:51:30;;;;;;;14.5;11.3;;;;;;;7.54;86.96387;947.1883;;;;
2019/04/03 03:53:56;;;;;;;16.8;13.1;;;;;;;7.39;87.58008;947.1702;;;;
2019/04/03 03:56:21;;;;;;;16.4;13.7;;;;;;;7.31;88.36914;947.1756;;;;
2019/04/03 03:58:46;;;;;;;14.7;11.9;;;;;;;7.32;88.49609;947.1916;;;;
2019/04/03 04:02:32;;;;;;;13.4;12;;;;;;;7.21;88.76172;947.1658;;;;
2019/04/03 04:04:57;;;;;;;14.3;11.8;;;;;;;7.19;89.08984;947.1851;;;;
2019/04/03 04:07:23;;;;;;;13.8;11.9;;;;;;;7.24;89.12402;947.2261;;;;
2019/04/03 04:09:48;;;;;;;15.5;12.2;;;;;;;7.29;89.04297;947.1401;;;;
2019/04/03 04:12:13;;;;;;;18.2;12.5;;;;;;;7.35;88.71289;947.1198;;;;
2019/04/03 04:14:42;;;;;;;17.1;12.8;;;;;;;7.42;88.26465;947.1287;;;;
2019/04/03 04:17:06;;;;;;;17.4;13.2;;;;;;;7.53;87.71094;947.1716;;;;
2019/04/03 04:19:44;;;;;;;18.3;13.5;;;;;;;7.65;86.28418;947.1286;;;;
2019/04/03 04:22:09;;;;;;;18.6;13.3;;;;;;;7.66;86.38965;947.0643;;;;
2019/04/03 04:24:36;;;;;;;18.8;13.5;;;;;;;7.65;86.00586;947.0825;;;;
2019/04/03 04:27:09;;;;;;;13.8;11.5;;;;;;;7.68;85.22949;947.0665;;;;
2019/04/03 04:29:35;;;;;;;14.3;11;;;;;;;7.62;85.44824;947.1155;;;;
2019/04/03 04:32:00;;;;;;;15.3;12.4;;;;;;;7.6;85.58398;947.1258;;;;
2019/04/03 04:34:26;;;;;;;13.1;11.7;;;;;;;7.64;85.62402;947.1344;;;;
2019/04/03 04:36:51;;;;;;;12.8;10.2;;;;;;;7.64;85.10547;947.1305;;;;
2019/04/03 04:39:16;;;;;;;14.5;12.3;;;;;;;7.66;85.30664;947.1152;;;;
2019/04/03 04:41:43;;;;;;;14.4;11.6;;;;;;;7.68;84.98926;947.1379;;;;
2019/04/03 04:44:08;;;;;;;12.9;10.8;;;;;;;7.63;84.84082;947.1224;;;;
2019/04/03 04:46:33;;;;;;;12.8;11.5;;;;;;;7.57;85.9707;947.1334;;;;
2019/04/03 04:48:58;;;;;;;13.1;11.2;;;;;;;7.52;85.70508;947.1186;;;;
2019/04/03 04:51:27;;;;;;;16.2;11.9;;;;;;;7.52;86.74316;947.0924;;;;
2019/04/03 04:53:52;;;;;;;16.9;11.9;;;;;;;7.61;86.38086;947.1203;;;;
2019/04/03 04:56:21;;;;;;;13.5;11.7;;;;;;;7.63;86.41797;947.0891;;;;
2019/04/03 04:58:47;;;;;;;12.9;11.1;;;;;;;7.65;86.13477;947.1412;;;;
2019/04/03 05:01:15;;;;;;;13.7;12.2;;;;;;;7.65;86.05566;947.0691;;;;
2019/04/03 05:03:41;;;;;;;14.5;11.1;;;;;;;7.65;86.31934;947.0865;;;;
2019/04/03 05:06:09;;;;;;;14.1;11;;;;;;;7.66;86.32129;947.0938;;;;
2019/04/03 05:08:34;;;;;;;16.2;12.1;;;;;;;7.62;87.0166;947.0175;;;;
2019/04/03 05:10:59;;;;;;;16.2;12.5;;;;;;;7.64;86.97363;947.0658;;;;
2019/04/03 05:13:24;;;;;;;18.6;11.9;;;;;;;7.68;87.00391;947.0069;;;;
2019/04/03 05:15:49;;;;;;;16.5;12.8;;;;;;;7.77;86.91895;946.9839;;;;
2019/04/03 05:18:15;;;;;;;16.5;12.5;;;;;;;7.84;86.07031;946.9967;;;;
2019/04/03 05:20:40;;;;;;;18.1;12.6;;;;;;;7.98;85.11719;946.9509;;;;
2019/04/03 05:23:05;;;;;;;18.7;12.3;;;;;;;8.15;84.1582;947.0168;;;;
2019/04/03 05:25:34;;;;;;;22.3;13;;;;;;;8.21;83.45313;947.0059;;;;
2019/04/03 05:27:59;;;;;;;20.7;13.2;;;;;;;8.21;83.85938;947.0862;;;;
2019/04/03 05:30:24;;;;;;;21.4;12.6;;;;;;;8.32;83.67383;947.0519;;;;
2019/04/03 05:32:49;;;;;;;18.7;12.4;;;;;;;8.4;82.97168;947.0137;;;;
2019/04/03 05:35:14;;;;;;;21.3;12.7;;;;;;;8.39;83.28223;946.9891;;;;
2019/04/03 05:37:39;;;;;;;20.8;13.3;;;;;;;8.42;83.10449;947.0659;;;;
2019/04/03 05:40:04;;;;;;;15.3;12.3;;;;;;;8.45;82.7627;947.0837;;;;
2019/04/03 05:42:29;;;;;;;18.2;12.4;;;;;;;8.57;82.13867;947.0737;;;;
2019/04/03 05:44:54;;;;;;;18.7;12.3;;;;;;;8.66;81.6377;946.9866;;;;
2019/04/03 05:47:20;;;;;;;22.6;12.9;;;;;;;8.81;81.37598;947.008;;;;
2019/04/03 05:49:45;;;;;;;21.6;14.1;;;;;;;8.81;80.78711;946.9905;;;;
2019/04/03 05:52:10;;;;;;;23.3;12.5;;;;;;;8.84;80.84961;946.9572;;;;
2019/04/03 05:54:35;;;;;;;29.5;14.8;;;;;;;8.88;81.32129;946.9355;;;;
2019/04/03 05:57:00;;;;;;;27.8;14.1;;;;;;;8.93;81.4668;946.9261;;;;
2019/04/03 05:59:25;;;;;;;23.9;14.2;;;;;;;9;81.13379;947.0151;;;;
2019/04/03 06:01:51;;;;;;;23.6;14.3;;;;;;;9.12;80.34766;946.9495;;;;
2019/04/03 06:04:16;;;;;;;25.8;15.4;;;;;;;9.3;79.75684;946.8986;;;;
2019/04/03 06:06:41;;;;;;;28.5;15.4;;;;;;;9.39;79.34668;946.9462;;;;
2019/04/03 06:09:06;;;;;;;23.1;14;;;;;;;9.6;78.78223;946.9473;;;;
2019/04/03 06:11:31;;;;;;;24;13.6;;;;;;;9.81;76.98145;946.9803;;;;
2019/04/03 06:13:57;;;;;;;26.1;15.1;;;;;;;9.96;76.75098;946.9461;;;;
2019/04/03 06:16:22;;;;;;;22.1;14.4;;;;;;;10.13;75.49609;946.9631;;;;
2019/04/03 06:18:47;;;;;;;20.7;13.6;;;;;;;10.3;74.5166;946.9035;;;;
2019/04/03 06:21:12;;;;;;;21.3;13.9;;;;;;;10.44;73.74121;946.9416;;;;
2019/04/03 06:23:37;;;;;;;22;12.8;;;;;;;10.63;73.04199;946.9269;;;;
2019/04/03 06:26:02;;;;;;;24.2;13.2;;;;;;;10.8;72.01465;946.9227;;;;
2019/04/03 06:28:27;;;;;;;20.8;13;;;;;;;11.09;70.32129;946.9108;;;;
2019/04/03 06:30:54;;;;;;;21;14;;;;;;;11.18;69.36035;946.9208;;;;
2019/04/03 06:33:19;;;;;;;20.1;13.3;;;;;;;11.34;68.60742;946.8837;;;;
2019/04/03 06:35:47;;;;;;;23.1;13.9;;;;;;;11.62;67.25488;946.9156;;;;
2019/04/03 06:38:12;;;;;;;19.2;12.9;;;;;;;11.91;66.28809;946.8864;;;;
2019/04/03 06:40:37;;;;;;;23.2;12.2;;;;;;;12.25;64.7334;946.8379;;;;
2019/04/03 06:43:02;;;;;;;26;12.8;;;;;;;12.38;64.08887;946.808;;;;
2019/04/03 06:45:31;;;;;;;21.3;11.7;;;;;;;12.41;63.90625;946.7823;;;;
2019/04/03 06:47:56;;;;;;;21.5;12.3;;;;;;;12.44;63.4209;946.723;;;;
2019/04/03 06:50:23;;;;;;;22.2;12.8;;;;;;;12.42;63.60645;946.7291;;;;
2019/04/03 06:52:48;;;;;;;19.4;12.5;;;;;;;12.48;64.90723;946.7514;;;;
2019/04/03 06:55:13;;;;;;;21.2;12.5;;;;;;;12.59;64.42383;946.6813;;;;
2019/04/03 06:57:42;;;;;;;17.8;12.4;;;;;;;12.96;65.37695;946.6903;;;;
2019/04/03 07:00:07;;;;;;;22.3;13.3;;;;;;;13.11;64.68652;946.6841;;;;
2019/04/03 07:02:32;;;;;;;19.3;13.1;;;;;;;13.82;62.62988;946.6674;;;;
2019/04/03 07:04:57;;;;;;;20.3;12.6;;;;;;;15.08;58.16992;946.6563;;;;
2019/04/03 07:07:22;;;;;;;21.3;13.8;;;;;;;16.22;53.63281;946.6364;;;;
2019/04/03 07:09:50;;;;;;;22.1;12.5;;;;;;;17.06;50.06152;946.588;;;;
2019/04/03 07:12:15;;;;;;;17.3;12.8;;;;;;;17.64;48.03027;946.623;;;;
2019/04/03 07:14:40;;;;;;;29.3;13.7;;;;;;;18.82;45.27539;946.5934;;;;
2019/04/03 07:17:06;;;;;;;19.5;12.6;;;;;;;19.78;42.60156;946.5812;;;;
2019/04/03 07:19:30;;;;;;;18.4;12.7;;;;;;;20.22;40.84082;946.5563;;;;
2019/04/03 07:21:56;;;;;;;24.5;13.3;;;;;;;20.78;39.62207;946.5411;;;;
2019/04/03 07:24:21;;;;;;;22.5;13;;;;;;;21.42;37.86035;946.551;;;;
2019/04/03 07:26:46;;;;;;;22.7;14.2;;;;;;;21.42;36.95605;946.5211;;;;
2019/04/03 07:29:12;;;;;;;18.9;14.6;;;;;;;21.21;37.71191;946.4817;;;;
2019/04/03 07:31:37;;;;;;;21;14.1;;;;;;;20.91;38.28027;946.4376;;;;
2019/04/03 07:34:02;;;;;;;18.1;14.7;;;;;;;20.96;38.01074;946.4208;;;;
2019/04/03 07:36:27;;;;;;;23.8;14;;;;;;;21.68;36.49121;946.4149;;;;
2019/04/03 07:38:52;;;;;;;20.7;13.1;;;;;;;21.5;36.4873;946.399;;;;
2019/04/03 07:41:17;;;;;;;21.8;11.9;;;;;;;21.18;35.97363;946.4088;;;;
2019/04/03 07:43:42;;;;;;;14.4;11.6;;;;;;;21.89;35.11426;946.38;;;;
2019/04/03 07:46:08;;;;;;;19.7;12.1;;;;;;;21.42;35.43457;946.3248;;;;
2019/04/03 07:48:32;;;;;;;12.5;10.9;;;;;;;21.44;35.2334;946.2922;;;;
2019/04/03 07:50:58;;;;;;;12;10.8;;;;;;;20.82;36.35938;946.2191;;;;
2019/04/03 07:53:23;;;;;;;13.3;11.3;;;;;;;20.79;36.61816;946.2594;;;;
2019/04/03 07:55:48;;;;;;;13.6;10.5;;;;;;;21.93;35.07031;946.1172;;;;
2019/04/03 07:58:13;;;;;;;16.3;11.7;;;;;;;23.89;31.8291;946.0876;;;;
2019/04/03 08:00:38;;;;;;;17.1;12.1;;;;;;;24.2;31.16895;946.1136;;;;
2019/04/03 08:03:03;;;;;;;15.9;12.2;;;;;;;23.34;32.3877;946.1241;;;;
2019/04/03 08:05:28;;;;;;;16;11.6;;;;;;;24.79;30.54004;946.1495;;;;
2019/04/03 08:07:53;;;;;;;15.7;10.9;;;;;;;24.6;30.20313;946.1931;;;;
2019/04/03 08:10:19;;;;;;;13.5;10.7;;;;;;;23.67;31.50293;946.118;;;;
2019/04/03 08:12:44;;;;;;;11.4;9.7;;;;;;;23.74;30.69531;946.171;;;;
2019/04/03 08:15:09;;;;;;;12.4;10.1;;;;;;;24.83;29.5127;946.1331;;;;
2019/04/03 08:17:34;;;;;;;15.7;10.9;;;;;;;23.87;31.03906;946.1778;;;;
2019/04/03 08:19:59;;;;;;;17;11.7;;;;;;;22.99;32.44531;946.0661;;;;
2019/04/03 08:22:24;;;;;;;13.9;11.2;;;;;;;23.23;32.37988;946.0623;;;;
2019/04/03 08:24:56;;;;;;;11;9.9;;;;;;;24.4;30.7998;946.0541;;;;
2019/04/03 08:27:23;;;;;;;13.2;10.5;;;;;;;24.68;29.72949;946.0378;;;;
2019/04/03 08:29:48;;;;;;;10.8;9.7;;;;;;;24.81;29.8584;945.9805;;;;
2019/04/03 08:32:19;;;;;;;12.1;10.3;;;;;;;24.42;30.20313;946.0514;;;;
2019/04/03 08:34:41;;;;;;;12.9;10.3;;;;;;;24.88;29.55176;945.9575;;;;
2019/04/03 08:37:06;;;;;;;12;9.5;;;;;;;25.31;28.93164;945.8783;;;;
2019/04/03 08:39:34;;;;;;;10.7;9.6;;;;;;;26.09;28.00977;945.9432;;;;
2019/04/03 08:42:01;;;;;;;11.8;9.9;;;;;;;25.5;28.87207;945.9464;;;;
2019/04/03 08:44:24;;;;;;;12.7;10.3;;;;;;;24.99;29.55859;945.9978;;;;
2019/04/03 08:46:49;;;;;;;11;9.4;;;;;;;24.25;30.45508;945.9003;;;;
2019/04/03 08:49:19;;;;;;;11.2;9.2;;;;;;;23.99;31.31055;945.8649;;;;
2019/04/03 08:51:44;;;;;;;12.3;9.4;;;;;;;24.98;29.98926;945.8308;;;;
2019/04/03 08:54:12;;;;;;;12.5;10.2;;;;;;;26.7;27.57813;945.7958;;;;
2019/04/03 08:56:37;;;;;;;13;10.1;;;;;;;25.43;29.39648;945.7369;;;;
2019/04/03 08:59:02;;;;;;;11.3;9.7;;;;;;;25.79;28.92676;945.731;;;;
2019/04/03 09:01:31;;;;;;;14.3;11;;;;;;;25.64;29.03809;945.6351;;;;
2019/04/03 09:03:56;;;;;;;11.7;10.5;;;;;;;25.52;29.25781;945.725;;;;
2019/04/03 09:06:21;;;;;;;10.3;9.2;;;;;;;25.92;29.08008;945.6622;;;;
2019/04/03 09:08:46;;;;;;;12.3;9.8;;;;;;;26.9;27.71094;945.535;;;;
2019/04/03 09:11:11;;;;;;;11.7;10;;;;;;;27.03;27.21387;945.6094;;;;
2019/04/03 09:13:36;;;;;;;11.3;9.3;;;;;;;25.94;28.67285;945.5492;;;;
2019/04/03 09:16:05;;;;;;;11.4;10.2;;;;;;;25.26;29.38477;945.5637;;;;
2019/04/03 09:18:30;;;;;;;10.9;9.7;;;;;;;25.19;29.76367;945.5203;;;;
2019/04/03 09:20:58;;;;;;;11.3;10;;;;;;;25.04;30.00586;945.4441;;;;
2019/04/03 09:23:23;;;;;;;10.3;9.3;;;;;;;25.41;29.27441;945.4229;;;;
2019/04/03 09:25:51;;;;;;;12.3;9.9;;;;;;;24.2;30.70313;945.4908;;;;
2019/04/03 09:28:16;;;;;;;11.4;9.4;;;;;;;23.99;31.11914;945.4495;;;;
2019/04/03 09:30:45;;;;;;;11.5;9.3;;;;;;;23.75;31.37695;945.3685;;;;
2019/04/03 09:33:10;;;;;;;10.6;9.3;;;;;;;24.21;30.88379;945.3145;;;;
2019/04/03 09:35:39;;;;;;;9.7;8.4;;;;;;;26.34;28.25293;945.3061;;;;
2019/04/03 09:38:04;;;;;;;11.9;9.5;;;;;;;27.95;25.96582;945.2661;;;;
2019/04/03 09:40:29;;;;;;;11.2;9.2;;;;;;;26.29;27.79297;945.2562;;;;
2019/04/03 09:42:54;;;;;;;12.5;9.8;;;;;;;24.88;29.3125;945.2216;;;;
2019/04/03 09:45:20;;;;;;;15.1;10.8;;;;;;;25.35;28.47949;945.1672;;;;
2019/04/03 09:47:48;;;;;;;11.9;9.5;;;;;;;25.38;28.12012;945.1407;;;;
2019/04/03 09:50:12;;;;;;;10.3;8.4;;;;;;;26.15;27.21973;945.1214;;;;
2019/04/03 09:52:38;;;;;;;11;9.6;;;;;;;26.6;26.21191;945.0783;;;;
2019/04/03 09:55:06;;;;;;;11.1;9.2;;;;;;;26.74;26.3291;945.0333;;;;
2019/04/03 09:57:31;;;;;;;11.9;9.4;;;;;;;27.61;25.28223;945.0201;;;;
2019/04/03 09:59:59;;;;;;;10.1;9.1;;;;;;;29.39;23.3252;944.8912;;;;
2019/04/03 10:02:24;;;;;;;10.3;9.3;;;;;;;28.75;23.55859;944.9529;;;;
2019/04/03 10:04:49;;;;;;;11.1;9.5;;;;;;;28.2;24.38574;944.9066;;;;
2019/04/03 10:07:15;;;;;;;11.7;9.9;;;;;;;27.23;25.74316;944.8717;;;;
2019/04/03 10:09:40;;;;;;;10.9;9.8;;;;;;;27.78;25.34082;944.7192;;;;
2019/04/03 10:12:08;;;;;;;11.4;9.6;;;;;;;29.15;23.66406;944.6208;;;;
2019/04/03 10:14:33;;;;;;;11.7;10.2;;;;;;;28.77;24.04297;944.655;;;;
2019/04/03 10:16:58;;;;;;;11.4;10.2;;;;;;;26.15;27.36426;944.7324;;;;
2019/04/03 10:19:25;;;;;;;13.4;11;;;;;;;24.77;28.94531;944.6585;;;;
2019/04/03 10:21:50;;;;;;;12;10.7;;;;;;;25.94;27.9043;944.6104;;;;
2019/04/03 10:24:15;;;;;;;10.7;9.5;;;;;;;27.54;26.25586;944.5689;;;;
2019/04/03 10:26:40;;;;;;;13.5;11.4;;;;;;;26.62;26.74316;944.5101;;;;
2019/04/03 10:29:05;;;;;;;11.7;10.5;;;;;;;26.7;26.83203;944.4456;;;;
2019/04/03 10:31:33;;;;;;;11.2;10.1;;;;;;;27.2;26.19922;944.4053;;;;
2019/04/03 10:33:58;;;;;;;11.2;10;;;;;;;26.81;26.73047;944.3594;;;;
2019/04/03 10:36:23;;;;;;;11.5;10.4;;;;;;;26.86;26.33594;944.2836;;;;
2019/04/03 10:38:49;;;;;;;11.3;10.1;;;;;;;28.52;24.19824;944.2151;;;;
2019/04/03 10:41:14;;;;;;;11.8;10.1;;;;;;;28.34;24.63574;944.1453;;;;
2019/04/03 10:43:39;;;;;;;11.5;9.7;;;;;;;27.64;25.39355;944.1555;;;;
2019/04/03 10:46:05;;;;;;;14.3;11.1;;;;;;;26.18;27.44922;944.077;;;;
2019/04/03 10:48:29;;;;;;;12.9;10.8;;;;;;;25.56;28.33594;944.0912;;;;
2019/04/03 10:50:54;;;;;;;11.4;10.4;;;;;;;25.92;27.50586;944.0871;;;;
2019/04/03 10:53:19;;;;;;;10.3;9.2;;;;;;;27;26.2959;944.0022;;;;
2019/04/03 10:55:44;;;;;;;9.4;8.5;;;;;;;28.68;24.50879;943.9595;;;;
2019/04/03 10:58:09;;;;;;;12;10.1;;;;;;;26.58;26.62012;943.9462;;;;
2019/04/03 11:00:35;;;;;;;12.2;10.9;;;;;;;24.71;28.96484;943.9677;;;;
2019/04/03 11:03:00;;;;;;;12.1;10.9;;;;;;;25.52;28.06934;943.7806;;;;
2019/04/03 11:05:25;;;;;;;11.2;9.1;;;;;;;26.8;26.50098;943.8681;;;;
2019/04/03 11:07:50;;;;;;;11.9;10.7;;;;;;;26.24;26.88867;943.7978;;;;
2019/04/03 11:10:15;;;;;;;11.3;10.1;;;;;;;25.07;27.95801;943.7833;;;;
2019/04/03 11:12:40;;;;;;;11.3;10.1;;;;;;;24.71;28.70215;943.6972;;;;
2019/04/03 11:15:05;;;;;;;10.8;9.7;;;;;;;25.69;27.43164;943.5864;;;;
2019/04/03 11:17:31;;;;;;;11;10;;;;;;;27.01;25.89941;943.6163;;;;
2019/04/03 11:19:56;;;;;;;14.2;11.3;;;;;;;27.92;24.63672;943.5399;;;;
2019/04/03 11:22:21;;;;;;;11.6;10.5;;;;;;;26.38;26.19922;943.5656;;;;
2019/04/03 11:24:46;;;;;;;10.8;9.8;;;;;;;26.44;26.28711;943.4448;;;;
2019/04/03 11:27:11;;;;;;;11.8;10.6;;;;;;;25.53;27.37402;943.4037;;;;
2019/04/03 11:29:36;;;;;;;12.6;10.7;;;;;;;23.29;30.10254;943.3786;;;;
2019/04/03 11:32:01;;;;;;;13.5;11;;;;;;;23.12;30.34277;943.392;;;;
2019/04/03 11:34:27;;;;;;;11.9;10.8;;;;;;;24.19;29.42188;943.2597;;;;
2019/04/03 11:36:52;;;;;;;12.1;9.9;;;;;;;24.66;28.62695;943.3058;;;;
2019/04/03 11:39:17;;;;;;;12.1;10.8;;;;;;;24.57;28.39258;943.2629;;;;
2019/04/03 11:41:42;;;;;;;10.5;9.5;;;;;;;25.25;27.48926;943.2425;;;;
2019/04/03 11:44:07;;;;;;;10.5;9.2;;;;;;;24.41;27.25781;943.1923;;;;
2019/04/03 11:46:32;;;;;;;10.2;8.5;;;;;;;24.63;27.04395;943.0633;;;;
2019/04/03 11:48:58;;;;;;;10.3;8.6;;;;;;;24.83;26.55273;943.0918;;;;
2019/04/03 11:51:23;;;;;;;10;8.9;;;;;;;24.53;27.4082;943.1186;;;;
2019/04/03 11:53:48;;;;;;;8.6;7.7;;;;;;;25.4;26.8623;943.0224;;;;
2019/04/03 11:56:13;;;;;;;9.6;8.6;;;;;;;26.98;24.64551;942.9628;;;;
2019/04/03 11:58:38;;;;;;;9.4;8.5;;;;;;;25.96;25.5625;942.9091;;;;
2019/04/03 12:01:03;;;;;;;10.1;8.1;;;;;;;25.65;25.1123;942.9094;;;;
2019/04/03 12:03:28;;;;;;;8.5;7.6;;;;;;;24.87;25.12793;942.793;;;;
2019/04/03 12:05:53;;;;;;;8.5;7.6;;;;;;;23.26;27.41406;942.8666;;;;
2019/04/03 12:08:18;;;;;;;7.9;7.1;;;;;;;24.05;26.4707;942.8371;;;;
2019/04/03 12:10:43;;;;;;;8.7;7.8;;;;;;;24.38;26.39355;942.7708;;;;
2019/04/03 12:13:09;;;;;;;10.6;9.5;;;;;;;22.83;28.7002;942.7201;;;;
2019/04/03 12:15:34;;;;;;;10;9;;;;;;;23.11;28.18066;942.6337;;;;
2019/04/03 12:17:59;;;;;;;10.8;9.1;;;;;;;23.25;28.5;942.5774;;;;
2019/04/03 12:20:24;;;;;;;11.9;10.1;;;;;;;23.84;28.52637;942.5243;;;;
2019/04/03 12:22:49;;;;;;;10.7;6.6;;;;;;;23.73;26.27246;942.5533;;;;
2019/04/03 12:25:14;;;;;;;7;6.3;;;;;;;24.85;25.27148;942.5215;;;;
2019/04/03 12:27:40;;;;;;;7.2;6.5;;;;;;;24.72;24.23438;942.5197;;;;
2019/04/03 12:30:05;;;;;;;6.8;6.1;;;;;;;23.95;25.04102;942.473;;;;
2019/04/03 12:32:30;;;;;;;9.5;7.1;;;;;;;25.31;24.54199;942.4238;;;;
2019/04/03 12:34:55;;;;;;;7.6;6.8;;;;;;;26.26;23.5957;942.3447;;;;
2019/04/03 12:37:20;;;;;;;8.9;7.3;;;;;;;25.95;23.77148;942.2444;;;;
2019/04/03 12:39:45;;;;;;;9.6;7.7;;;;;;;25.44;24.20117;942.2068;;;;
2019/04/03 12:42:10;;;;;;;10.7;9.6;;;;;;;23;27.66113;942.1969;;;;
2019/04/03 12:44:35;;;;;;;9.6;8.6;;;;;;;22.94;28.19434;942.1351;;;;
2019/04/03 12:47:00;;;;;;;11.3;9.1;;;;;;;21.84;29.83887;942.0995;;;;
2019/04/03 12:49:26;;;;;;;9.5;8.4;;;;;;;23.31;28.16895;942.0238;;;;
2019/04/03 12:51:51;;;;;;;10.4;8.8;;;;;;;23.77;27.58887;942.0242;;;;
2019/04/03 12:54:16;;;;;;;8.7;7.9;;;;;;;23.34;27.2998;942.0561;;;;
2019/04/03 12:56:41;;;;;;;9.8;8.3;;;;;;;23.93;26.78613;941.9383;;;;
2019/04/03 12:59:06;;;;;;;10.7;9.6;;;;;;;24.11;26.73633;941.9227;;;;
2019/04/03 13:01:31;;;;;;;11.1;9.5;;;;;;;22.57;28.64746;941.9461;;;;
2019/04/03 13:03:56;;;;;;;12.9;9.7;;;;;;;21.6;30.22656;941.9395;;;;
2019/04/03 13:06:21;;;;;;;11.8;10.4;;;;;;;21.17;31.00586;941.8589;;;;
2019/04/03 13:08:47;;;;;;;11;10;;;;;;;20.9;31.37891;941.8027;;;;
2019/04/03 13:11:12;;;;;;;11;9.8;;;;;;;21.86;30.07715;941.8106;;;;
2019/04/03 13:13:37;;;;;;;13.3;9.7;;;;;;;22.27;29.46191;941.8397;;;;
2019/04/03 13:16:02;;;;;;;11.6;10.1;;;;;;;21.87;29.70996;941.7648;;;;
2019/04/03 13:18:27;;;;;;;12.8;10.9;;;;;;;20.96;31.73926;941.7659;;;;
2019/04/03 13:20:52;;;;;;;11.5;10.4;;;;;;;21.98;30.64551;941.6016;;;;
2019/04/03 13:23:18;;;;;;;13.9;12.5;;;;;;;20.61;32.16504;941.7321;;;;
2019/04/03 13:25:42;;;;;;;13.3;11.1;;;;;;;20.7;32.58691;941.549;;;;
2019/04/03 13:28:07;;;;;;;13.5;12.2;;;;;;;20.54;32.90723;941.6661;;;;
2019/04/03 13:30:33;;;;;;;15.2;11.7;;;;;;;20.37;33.77246;941.4799;;;;
2019/04/03 13:32:58;;;;;;;14.8;13.1;;;;;;;20.27;34.15625;941.3814;;;;
2019/04/03 13:35:23;;;;;;;18.2;12.5;;;;;;;20.93;33.35254;941.3816;;;;
2019/04/03 13:37:48;;;;;;;17.2;12.7;;;;;;;20.75;33.43359;941.3148;;;;
2019/04/03 13:40:14;;;;;;;13.7;12.3;;;;;;;20.71;33.47852;941.2256;;;;
2019/04/03 13:42:39;;;;;;;17.1;13.4;;;;;;;20.36;34.04492;941.097;;;;
2019/04/03 13:45:04;;;;;;;16.4;14.7;;;;;;;19.9;34.81543;941.0939;;;;
2019/04/03 13:47:29;;;;;;;18.7;15;;;;;;;19.69;35.31934;941.0317;;;;
2019/04/03 13:49:54;;;;;;;16.5;14.1;;;;;;;19.52;34.61914;941.1044;;;;
2019/04/03 13:52:20;;;;;;;18.2;14.5;;;;;;;19.82;34.39453;940.9709;;;;
2019/04/03 13:54:44;;;;;;;16;13.6;;;;;;;19.86;34.08887;940.8943;;;;
2019/04/03 13:57:09;;;;;;;16.1;14.3;;;;;;;20.39;33.42969;940.8622;;;;
2019/04/03 13:59:35;;;;;;;17.6;13.9;;;;;;;20.24;33.7627;940.8586;;;;